Time;durP1;ratioP1;P1;durP2;ratioP2;P2;SDS_P1;SDS_P2;PMS_P1;PMS_P2;Temp;Humidity;BMP_temperature;BMP_pressure;BME280_temperature;BME280_humidity;BME280_pressure;Samples;Min_cycle;Max_cycle;Signal;HPM_P1;HPM_P2
2023/06/23 00:02:19;;;;;;;;;;;18.40;99.90;;;;;;5111247;28;20024;-76
2023/06/23 00:04:45;;;;;;;;;;;18.40;99.90;;;;;;5094707;28;19919;-76
2023/06/23 00:07:10;;;;;;;;;;;18.40;99.90;;;;;;5112316;28;19926;-76
2023/06/23 00:09:37;;;;;;;;;;;18.30;99.90;;;;;;5106420;28;19927;-76
2023/06/23 00:12:07;;;;;;;;;;;18.40;99.90;;;;;;5097807;28;19920;-75
2023/06/23 00:14:34;;;;;;;;;;;18.30;99.90;;;;;;5081244;28;20369;-76
2023/06/23 00:16:59;;;;;;;;;;;18.30;99.90;;;;;;5093407;28;19924;-76
2023/06/23 00:19:31;;;;;;;;;;;18.30;99.90;;;;;;5079416;28;20278;-76
2023/06/23 00:21:57;;;;;;;;;;;18.20;99.90;;;;;;5088111;28;20361;-76
2023/06/23 00:24:23;;;;;;;;;;;18.20;99.90;;;;;;5093971;28;19927;-77
2023/06/23 00:26:49;;;;;;;;;;;18.10;99.90;;;;;;5111471;28;19926;-77
2023/06/23 00:29:15;;;;;;;;;;;18.30;99.90;;;;;;5087548;28;20322;-76
2023/06/23 00:31:40;;;;;;;;;;;18.20;99.90;;;;;;5085434;28;20258;-75
2023/06/23 00:34:06;;;;;;;;;;;18.30;99.90;;;;;;5088110;28;19927;-76
2023/06/23 00:36:31;;;;;;;;;;;18.30;99.90;;;;;;5112720;28;19931;-75
2023/06/23 00:38:57;;;;;;;;;;;18.30;99.90;;;;;;5096279;28;20338;-76
2023/06/23 00:41:23;;;;;;;;;;;18.30;99.90;;;;;;5077194;28;20274;-77
2023/06/23 00:43:51;;;;;;;;;;;18.30;99.90;;;;;;5111934;28;19920;-76
2023/06/23 00:46:17;;;;;;;;;;;18.30;99.90;;;;;;5110277;28;19919;-75
2023/06/23 00:48:43;;;;;;;;;;;18.30;99.90;;;;;;5112241;28;20007;-76
2023/06/23 00:51:09;;;;;;;;;;;18.30;99.90;;;;;;5082929;28;19971;-76
2023/06/23 00:53:35;;;;;;;;;;;18.20;99.90;;;;;;5101091;28;19928;-76
2023/06/23 00:56:01;;;;;;;;;;;18.20;99.90;;;;;;5097602;28;20350;-76
2023/06/23 00:58:27;;;;;;;;;;;18.20;99.90;;;;;;5082648;28;19920;-76
2023/06/23 01:00:54;;;;;;;;;;;18.20;99.90;;;;;;5085285;28;20360;-75
2023/06/23 01:03:20;;;;;;;;;;;18.20;99.90;;;;;;5105647;28;20058;-76
2023/06/23 01:05:45;;;;;;;;;;;18.20;99.90;;;;;;5113902;28;19927;-76
2023/06/23 01:08:14;;;;;;;;;;;18.20;99.90;;;;;;5112703;28;19920;-77
2023/06/23 01:10:43;;;;;;;;;;;18.20;99.90;;;;;;5109105;28;19919;-76
2023/06/23 01:13:17;;;;;;;;;;;18.20;99.90;;;;;;5100074;28;20010;-77
2023/06/23 01:16:06;;;;;;;;;;;18.20;99.90;;;;;;5084037;28;19926;-77
2023/06/23 01:18:32;;;;;;;;;;;18.20;99.90;;;;;;5030793;28;19943;-76
2023/06/23 01:21:03;;;;;;;;;;;18.20;99.90;;;;;;5104494;28;20360;-77
2023/06/23 01:23:32;;;;;;;;;;;18.20;99.90;;;;;;5069889;28;19920;-76
2023/06/23 01:26:03;;;;;;;;;;;18.10;99.90;;;;;;5084990;28;20344;-77
2023/06/23 01:28:52;;;;;;;;;;;18.10;99.90;;;;;;5095875;28;20289;-77
2023/06/23 01:31:21;;;;;;;;;;;18.10;99.90;;;;;;5084791;28;19927;-76
2023/06/23 01:33:57;;;;;;;;;;;18.10;99.90;;;;;;5087195;28;19919;-77
2023/06/23 01:36:41;;;;;;;;;;;18.10;99.90;;;;;;5118761;27;20383;-76
2023/06/23 01:39:08;;;;;;;;;;;18.10;99.90;;;;;;5118296;27;19920;-75
2023/06/23 01:41:38;;;;;;;;;;;18.10;99.90;;;;;;5114701;27;19919;-76
2023/06/23 01:44:05;;;;;;;;;;;18.10;99.90;;;;;;5113535;28;19920;-76
2023/06/23 01:46:35;;;;;;;;;;;18.10;99.90;;;;;;5099416;28;20360;-75
2023/06/23 01:49:02;;;;;;;;;;;18.00;99.90;;;;;;5108226;28;20320;-76
2023/06/23 01:51:28;;;;;;;;;;;17.90;99.90;;;;;;5104733;28;19920;-76
2023/06/23 01:53:55;;;;;;;;;;;18.00;99.90;;;;;;5087640;28;20335;-75
2023/06/23 01:56:22;;;;;;;;;;;18.10;99.90;;;;;;5113809;27;19920;-76
2023/06/23 01:58:48;;;;;;;;;;;18.10;99.90;;;;;;5099871;27;19927;-76
2023/06/23 02:01:13;;;;;;;;;;;18.00;99.90;;;;;;5112976;28;19920;-75
2023/06/23 02:03:39;;;;;;;;;;;18.00;99.90;;;;;;5091754;28;19919;-75
2023/06/23 02:06:06;;;;;;;;;;;18.00;99.90;;;;;;5123030;27;19920;-76
2023/06/23 02:08:32;;;;;;;;;;;18.00;99.90;;;;;;5093203;28;19920;-76
2023/06/23 02:10:58;;;;;;;;;;;18.00;99.90;;;;;;5110343;28;20372;-75
2023/06/23 02:13:25;;;;;;;;;;;18.00;99.90;;;;;;5106931;28;19973;-76
2023/06/23 02:15:52;;;;;;;;;;;18.00;99.90;;;;;;5084985;28;19920;-76
2023/06/23 02:18:18;;;;;;;;;;;18.00;99.90;;;;;;5094436;28;19920;-77
2023/06/23 02:20:45;;;;;;;;;;;17.90;99.90;;;;;;5080258;28;19924;-77
2023/06/23 02:23:11;;;;;;;;;;;17.90;99.90;;;;;;5091727;28;19920;-77
2023/06/23 02:25:39;;;;;;;;;;;17.90;99.90;;;;;;5096794;28;20441;-76
2023/06/23 02:28:05;;;;;;;;;;;17.90;99.90;;;;;;5091604;28;19935;-75
2023/06/23 02:30:31;;;;;;;;;;;18.00;99.90;;;;;;5079923;28;19919;-77
2023/06/23 02:32:57;;;;;;;;;;;17.90;99.90;;;;;;5089384;28;19920;-75
2023/06/23 02:35:23;;;;;;;;;;;17.90;99.90;;;;;;5077219;28;19924;-76
2023/06/23 02:37:54;;;;;;;;;;;18.00;99.90;;;;;;5110755;28;20382;-76
2023/06/23 02:40:21;;;;;;;;;;;18.00;99.90;;;;;;5097431;28;19920;-75
2023/06/23 02:42:50;;;;;;;;;;;18.00;99.90;;;;;;5101258;28;19926;-76
2023/06/23 02:45:17;;;;;;;;;;;18.00;99.90;;;;;;5109689;28;20389;-76
2023/06/23 02:47:44;;;;;;;;;;;18.00;99.90;;;;;;5111225;27;19974;-76
2023/06/23 02:50:14;;;;;;;;;;;18.00;99.90;;;;;;5108232;28;19920;-76
2023/06/23 02:52:44;;;;;;;;;;;17.90;99.90;;;;;;5094801;28;20354;-76
2023/06/23 02:55:10;;;;;;;;;;;18.00;99.90;;;;;;5108481;28;19919;-75
2023/06/23 02:57:37;;;;;;;;;;;18.00;99.90;;;;;;5105067;28;19962;-75
2023/06/23 03:00:12;;;;;;;;;;;17.90;99.90;;;;;;5085058;28;20377;-76
2023/06/23 03:02:40;;;;;;;;;;;18.00;99.90;;;;;;5081365;28;19916;-77
2023/06/23 03:05:07;;;;;;;;;;;18.00;99.90;;;;;;5059612;28;19927;-76
2023/06/23 03:07:38;;;;;;;;;;;17.90;99.90;;;;;;5095139;28;19927;-76
2023/06/23 03:10:05;;;;;;;;;;;17.90;99.90;;;;;;5067535;28;19920;-76
2023/06/23 03:12:31;;;;;;;;;;;17.90;99.90;;;;;;5110923;28;19954;-76
2023/06/23 03:14:57;;;;;;;;;;;17.90;99.90;;;;;;5090145;28;19947;-76
2023/06/23 03:17:25;;;;;;;;;;;17.80;99.90;;;;;;5121754;27;19920;-77
2023/06/23 03:20:02;;;;;;;;;;;17.80;99.90;;;;;;5076048;28;19920;-75
2023/06/23 03:22:48;;;;;;;;;;;17.80;99.90;;;;;;5108019;28;19928;-76
2023/06/23 03:25:18;;;;;;;;;;;17.80;99.90;;;;;;5107580;28;19920;-76
2023/06/23 03:27:45;;;;;;;;;;;17.80;99.90;;;;;;5093649;28;20398;-76
2023/06/23 03:30:18;;;;;;;;;;;17.80;99.90;;;;;;5110410;27;20056;-76
2023/06/23 03:32:47;;;;;;;;;;;17.80;99.90;;;;;;5111113;28;19920;-76
2023/06/23 03:35:15;;;;;;;;;;;17.80;99.90;;;;;;5101967;28;19931;-77
2023/06/23 03:37:47;;;;;;;;;;;17.80;99.90;;;;;;5098285;28;19928;-76
2023/06/23 03:40:14;;;;;;;;;;;17.80;99.90;;;;;;5092295;28;19964;-76
2023/06/23 03:42:43;;;;;;;;;;;17.70;99.90;;;;;;5110355;28;20289;-76
2023/06/23 03:45:10;;;;;;;;;;;17.70;99.90;;;;;;5109614;28;20010;-76
2023/06/23 03:47:36;;;;;;;;;;;17.70;99.90;;;;;;5108647;28;19919;-76
2023/06/23 03:50:11;;;;;;;;;;;17.70;99.90;;;;;;5103902;28;20018;-77
2023/06/23 03:52:38;;;;;;;;;;;17.70;99.90;;;;;;5121905;27;19998;-76
2023/06/23 03:55:05;;;;;;;;;;;17.70;99.90;;;;;;5099752;28;19930;-76
2023/06/23 03:57:31;;;;;;;;;;;17.60;99.90;;;;;;5084791;28;19989;-75
2023/06/23 03:59:57;;;;;;;;;;;17.60;99.90;;;;;;5097258;28;19920;-77
2023/06/23 04:02:26;;;;;;;;;;;17.60;99.90;;;;;;5097608;28;19973;-75
2023/06/23 04:04:54;;;;;;;;;;;17.60;99.90;;;;;;5098340;28;19934;-77
2023/06/23 04:07:20;;;;;;;;;;;17.50;99.90;;;;;;5081088;28;19926;-76
2023/06/23 04:09:48;;;;;;;;;;;17.50;99.90;;;;;;5096770;28;20305;-76
2023/06/23 04:12:15;;;;;;;;;;;17.50;99.90;;;;;;5092133;28;20003;-76
2023/06/23 04:14:42;;;;;;;;;;;17.50;99.90;;;;;;5096419;28;19920;-76
2023/06/23 04:17:08;;;;;;;;;;;17.40;99.90;;;;;;5110041;28;19993;-76
2023/06/23 04:19:35;;;;;;;;;;;17.40;99.90;;;;;;5107133;28;20006;-77
2023/06/23 04:22:02;;;;;;;;;;;17.40;99.90;;;;;;5081199;28;20305;-76
2023/06/23 04:24:29;;;;;;;;;;;17.40;99.90;;;;;;5097558;28;19920;-76
2023/06/23 04:26:55;;;;;;;;;;;17.40;99.90;;;;;;5117503;28;19924;-76
2023/06/23 04:29:23;;;;;;;;;;;17.40;99.90;;;;;;5082542;28;19928;-77
2023/06/23 04:31:50;;;;;;;;;;;17.50;99.90;;;;;;5108914;28;20373;-76
2023/06/23 04:34:15;;;;;;;;;;;17.50;99.90;;;;;;5110265;28;19919;-77
2023/06/23 04:36:47;;;;;;;;;;;17.50;99.90;;;;;;5102256;28;19943;-76
2023/06/23 04:39:16;;;;;;;;;;;17.60;99.90;;;;;;5095731;28;20340;-75
2023/06/23 04:41:42;;;;;;;;;;;17.60;99.90;;;;;;5091159;28;19919;-76
2023/06/23 04:44:09;;;;;;;;;;;17.60;99.90;;;;;;5100162;28;19921;-76
2023/06/23 04:46:38;;;;;;;;;;;17.60;99.90;;;;;;5112113;28;19927;-76
2023/06/23 04:49:08;;;;;;;;;;;17.60;99.90;;;;;;5107933;28;19982;-76
2023/06/23 04:51:37;;;;;;;;;;;17.60;99.90;;;;;;5095233;27;20292;-76
2023/06/23 04:54:14;;;;;;;;;;;17.60;99.90;;;;;;5102831;28;19920;-76
2023/06/23 04:56:41;;;;;;;;;;;17.60;99.90;;;;;;5101757;28;20361;-76
2023/06/23 04:59:08;;;;;;;;;;;17.60;99.90;;;;;;5092181;28;19923;-77
2023/06/23 05:01:35;;;;;;;;;;;17.60;99.90;;;;;;5111453;28;20367;-76
2023/06/23 05:04:01;;;;;;;;;;;17.60;99.90;;;;;;5105000;28;19920;-75
2023/06/23 05:06:28;;;;;;;;;;;17.70;99.90;;;;;;5111064;28;19919;-76
2023/06/23 05:08:55;;;;;;;;;;;17.70;99.90;;;;;;5090597;28;19926;-75
2023/06/23 05:11:21;;;;;;;;;;;17.70;99.90;;;;;;5106582;28;20270;-76
2023/06/23 05:13:47;;;;;;;;;;;17.70;99.90;;;;;;5101971;27;19928;-76
2023/06/23 05:16:14;;;;;;;;;;;17.80;99.90;;;;;;5105028;28;20293;-76
2023/06/23 05:18:40;;;;;;;;;;;17.80;99.90;;;;;;5097286;28;20010;-76
2023/06/23 05:21:06;;;;;;;;;;;17.90;99.90;;;;;;5106476;28;19919;-76
2023/06/23 05:23:35;;;;;;;;;;;17.80;99.90;;;;;;5100717;27;19950;-75
2023/06/23 05:26:02;;;;;;;;;;;17.80;99.90;;;;;;5111867;28;19946;-75
2023/06/23 05:28:31;;;;;;;;;;;17.90;99.90;;;;;;5111106;28;19949;-74
2023/06/23 05:30:57;;;;;;;;;;;17.90;99.90;;;;;;5066622;28;19938;-75
2023/06/23 05:33:24;;;;;;;;;;;17.90;99.90;;;;;;5090389;28;19920;-75
2023/06/23 05:35:50;;;;;;;;;;;17.90;99.90;;;;;;5104070;28;19920;-75
2023/06/23 05:38:17;;;;;;;;;;;17.90;99.90;;;;;;5107655;28;19924;-77
2023/06/23 05:40:42;;;;;;;;;;;17.80;99.90;;;;;;5109090;28;19963;-76
2023/06/23 05:43:08;;;;;;;;;;;17.90;99.90;;;;;;5096627;28;19927;-75
2023/06/23 05:45:34;;;;;;;;;;;17.90;99.90;;;;;;5099259;28;19927;-74
2023/06/23 05:48:02;;;;;;;;;;;17.80;99.90;;;;;;5091441;28;19932;-75
2023/06/23 05:50:29;;;;;;;;;;;17.90;99.90;;;;;;5078479;28;20462;-75
2023/06/23 05:53:03;;;;;;;;;;;17.90;99.90;;;;;;5096408;28;20033;-74
2023/06/23 05:55:29;;;;;;;;;;;17.90;99.90;;;;;;5096604;28;19928;-75
2023/06/23 05:57:59;;;;;;;;;;;17.80;99.90;;;;;;5095569;28;19924;-75
2023/06/23 06:00:38;;;;;;;;;;;18.00;99.90;;;;;;5097064;28;19924;-75
2023/06/23 06:03:07;;;;;;;;;;;17.90;99.90;;;;;;5100769;28;19928;-75
2023/06/23 06:05:34;;;;;;;;;;;17.90;99.90;;;;;;5081317;28;19946;-74
2023/06/23 06:08:01;;;;;;;;;;;18.00;99.90;;;;;;5098754;28;19923;-75
2023/06/23 06:10:27;;;;;;;;;;;18.10;99.90;;;;;;5113924;28;20442;-76
2023/06/23 06:12:53;;;;;;;;;;;18.30;99.90;;;;;;5101248;28;19919;-75
2023/06/23 06:15:19;;;;;;;;;;;18.60;99.90;;;;;;5097494;28;20011;-75
2023/06/23 06:17:46;;;;;;;;;;;19.00;99.90;;;;;;5094760;27;19962;-75
2023/06/23 06:20:12;;;;;;;;;;;19.20;99.90;;;;;;5127323;27;19927;-74
2023/06/23 06:22:39;;;;;;;;;;;19.30;99.90;;;;;;5112608;28;20358;-75
2023/06/23 06:25:08;;;;;;;;;;;19.30;99.90;;;;;;5115061;28;19924;-75
2023/06/23 06:27:34;;;;;;;;;;;19.30;99.90;;;;;;5113168;28;20005;-75
2023/06/23 06:30:00;;;;;;;;;;;19.40;99.90;;;;;;5085998;28;20002;-74
2023/06/23 06:32:29;;;;;;;;;;;19.50;99.90;;;;;;5107242;28;19920;-76
2023/06/23 06:34:56;;;;;;;;;;;19.50;99.90;;;;;;5105645;28;19949;-75
2023/06/23 06:37:24;;;;;;;;;;;19.60;99.90;;;;;;5100601;28;19924;-75
2023/06/23 06:39:50;;;;;;;;;;;19.70;99.90;;;;;;5109564;28;20371;-74
2023/06/23 06:42:15;;;;;;;;;;;19.70;99.90;;;;;;5112723;28;19919;-74
2023/06/23 06:44:41;;;;;;;;;;;19.80;99.90;;;;;;5077645;28;20429;-75
2023/06/23 06:47:08;;;;;;;;;;;19.90;99.90;;;;;;5100152;28;19926;-75
2023/06/23 06:49:34;;;;;;;;;;;20.00;99.90;;;;;;5098632;28;19924;-75
2023/06/23 06:51:59;;;;;;;;;;;20.10;99.90;;;;;;5072541;28;20262;-75
2023/06/23 06:54:26;;;;;;;;;;;20.20;99.90;;;;;;5091616;28;19998;-75
2023/06/23 06:56:53;;;;;;;;;;;20.30;99.90;;;;;;5098240;28;19920;-75
2023/06/23 06:59:22;;;;;;;;;;;20.40;99.90;;;;;;5106722;28;19970;-74
2023/06/23 07:01:48;;;;;;;;;;;20.50;99.90;;;;;;5117545;28;19919;-76
2023/06/23 07:04:14;;;;;;;;;;;20.60;99.90;;;;;;5106026;28;20014;-76
2023/06/23 07:06:40;;;;;;;;;;;20.70;99.90;;;;;;5110572;28;19920;-75
2023/06/23 07:09:06;;;;;;;;;;;20.80;99.90;;;;;;5100297;28;19919;-74
2023/06/23 07:11:32;;;;;;;;;;;20.90;99.90;;;;;;5113605;28;20006;-75
2023/06/23 07:13:58;;;;;;;;;;;21.00;99.90;;;;;;5063614;28;19920;-74
2023/06/23 07:16:24;;;;;;;;;;;21.10;99.90;;;;;;5113828;28;19931;-75
2023/06/23 07:18:50;;;;;;;;;;;21.20;99.90;;;;;;5096039;28;19962;-75
2023/06/23 07:21:15;;;;;;;;;;;21.20;99.90;;;;;;5124017;27;19942;-75
2023/06/23 07:23:41;;;;;;;;;;;21.30;99.90;;;;;;5116848;28;19941;-73
2023/06/23 07:26:07;;;;;;;;;;;21.30;99.90;;;;;;5084311;28;19920;-75
2023/06/23 07:28:35;;;;;;;;;;;21.40;99.90;;;;;;5099685;28;19973;-76
2023/06/23 07:31:01;;;;;;;;;;;21.50;99.90;;;;;;5095090;28;19958;-75
2023/06/23 07:33:26;;;;;;;;;;;21.60;99.90;;;;;;5110485;28;20381;-75
2023/06/23 07:35:52;;;;;;;;;;;21.70;99.90;;;;;;5098126;28;19971;-75
2023/06/23 07:38:17;;;;;;;;;;;21.70;99.90;;;;;;5087206;28;19920;-74
2023/06/23 07:40:43;;;;;;;;;;;21.80;99.90;;;;;;5077470;28;19927;-74
2023/06/23 07:43:09;;;;;;;;;;;21.90;99.90;;;;;;5090431;28;19935;-74
2023/06/23 07:45:34;;;;;;;;;;;21.90;99.90;;;;;;5096027;28;19969;-76
2023/06/23 07:48:00;;;;;;;;;;;21.90;99.90;;;;;;5095560;28;19927;-76
2023/06/23 07:50:26;;;;;;;;;;;22.00;99.90;;;;;;5095533;28;19927;-75
2023/06/23 07:52:53;;;;;;;;;;;22.10;99.90;;;;;;5071906;28;19926;-75
2023/06/23 07:55:19;;;;;;;;;;;22.10;99.90;;;;;;5080663;28;19926;-74
2023/06/23 07:57:45;;;;;;;;;;;22.30;99.90;;;;;;5075913;28;19986;-74
2023/06/23 08:00:12;;;;;;;;;;;22.30;99.50;;;;;;5080638;28;20389;-75
2023/06/23 08:02:37;;;;;;;;;;;22.30;99.40;;;;;;5090924;28;19920;-75
2023/06/23 08:05:03;;;;;;;;;;;22.30;99.90;;;;;;5094082;28;19973;-73
2023/06/23 08:07:29;;;;;;;;;;;22.40;99.10;;;;;;5075611;28;19920;-74
2023/06/23 08:09:54;;;;;;;;;;;22.40;99.20;;;;;;5097858;28;19986;-76
2023/06/23 08:12:20;;;;;;;;;;;22.50;99.30;;;;;;5096853;28;19920;-77
2023/06/23 08:14:45;;;;;;;;;;;22.50;99.60;;;;;;5129183;28;19919;-76
2023/06/23 08:17:11;;;;;;;;;;;22.50;99.00;;;;;;5097752;28;19920;-76
2023/06/23 08:19:37;;;;;;;;;;;22.60;99.50;;;;;;5115956;28;19920;-76
2023/06/23 08:22:03;;;;;;;;;;;22.70;98.60;;;;;;5099427;28;19927;-76
2023/06/23 08:24:29;;;;;;;;;;;22.70;98.20;;;;;;5084153;28;19920;-76
2023/06/23 08:26:54;;;;;;;;;;;22.70;97.80;;;;;;5100301;28;20412;-77
2023/06/23 08:29:20;;;;;;;;;;;22.80;98.50;;;;;;5088241;28;19928;-76
2023/06/23 08:31:46;;;;;;;;;;;22.90;98.80;;;;;;5099968;28;20006;-79
2023/06/23 08:34:11;;;;;;;;;;;22.90;99.40;;;;;;5109310;28;20285;-76
2023/06/23 08:36:37;;;;;;;;;;;23.00;98.60;;;;;;5090943;28;19951;-76
2023/06/23 08:39:02;;;;;;;;;;;23.10;99.50;;;;;;5113727;28;19958;-76
2023/06/23 08:41:29;;;;;;;;;;;23.10;99.90;;;;;;5117297;28;19934;-77
2023/06/23 08:43:54;;;;;;;;;;;23.10;99.90;;;;;;5105544;28;20007;-77
2023/06/23 08:46:22;;;;;;;;;;;23.20;99.90;;;;;;5082326;28;19991;-76
2023/06/23 08:48:50;;;;;;;;;;;23.20;99.90;;;;;;5097728;28;19920;-76
2023/06/23 08:51:15;;;;;;;;;;;23.30;99.90;;;;;;5099104;28;19924;-77
2023/06/23 08:53:42;;;;;;;;;;;23.40;99.90;;;;;;5090387;28;19927;-76
2023/06/23 08:56:08;;;;;;;;;;;23.50;99.90;;;;;;5113041;27;19920;-75
2023/06/23 08:58:34;;;;;;;;;;;23.50;99.90;;;;;;5121360;27;20361;-75
2023/06/23 09:00:59;;;;;;;;;;;23.60;99.90;;;;;;5065087;28;20429;-77
2023/06/23 09:03:25;;;;;;;;;;;23.50;99.90;;;;;;5097791;28;20020;-76
2023/06/23 09:05:51;;;;;;;;;;;23.40;99.80;;;;;;5096657;28;20373;-77
2023/06/23 09:08:16;;;;;;;;;;;23.50;98.60;;;;;;5094646;28;19920;-75
2023/06/23 09:10:42;;;;;;;;;;;23.40;99.60;;;;;;5113903;28;19927;-76
2023/06/23 09:13:08;;;;;;;;;;;23.50;99.90;;;;;;5103223;28;20361;-77
2023/06/23 09:15:34;;;;;;;;;;;23.50;99.90;;;;;;5115589;27;19926;-77
2023/06/23 09:18:02;;;;;;;;;;;23.50;99.90;;;;;;5088418;28;19927;-77
2023/06/23 09:20:29;;;;;;;;;;;23.60;99.90;;;;;;5101478;27;20284;-76
2023/06/23 09:22:55;;;;;;;;;;;23.60;99.90;;;;;;5138170;27;19923;-77
2023/06/23 09:25:37;;;;;;;;;;;23.80;99.90;;;;;;5106461;27;20289;-77
2023/06/23 09:28:03;;;;;;;;;;;23.80;99.80;;;;;;5073683;28;20029;-77
2023/06/23 09:30:34;;;;;;;;;;;24.00;99.60;;;;;;5113370;27;19958;-76
2023/06/23 09:33:03;;;;;;;;;;;24.00;99.10;;;;;;5090212;28;20297;-76
2023/06/23 09:35:29;;;;;;;;;;;24.10;97.10;;;;;;5096338;28;20372;-76
2023/06/23 09:37:55;;;;;;;;;;;24.00;97.60;;;;;;5107404;28;19934;-76
2023/06/23 09:40:27;;;;;;;;;;;24.00;96.30;;;;;;5114650;28;19919;-77
2023/06/23 09:42:59;;;;;;;;;;;24.00;95.30;;;;;;5115801;28;20331;-77
2023/06/23 09:45:25;;;;;;;;;;;24.10;96.10;;;;;;5108523;28;19999;-76
2023/06/23 09:47:51;;;;;;;;;;;24.10;94.70;;;;;;5081677;28;20341;-77
2023/06/23 09:50:17;;;;;;;;;;;24.20;95.10;;;;;;5103719;27;20002;-77
2023/06/23 09:52:43;;;;;;;;;;;24.30;93.00;;;;;;5104054;27;19928;-76
2023/06/23 09:55:09;;;;;;;;;;;24.30;91.20;;;;;;5116113;27;19919;-77
2023/06/23 09:57:34;;;;;;;;;;;24.30;93.60;;;;;;5098511;27;20358;-76
2023/06/23 10:00:01;;;;;;;;;;;24.30;93.60;;;;;;5110619;28;20316;-77
2023/06/23 10:02:28;;;;;;;;;;;24.40;93.40;;;;;;5107392;28;19945;-77
2023/06/23 10:05:03;;;;;;;;;;;24.40;91.60;;;;;;5115953;27;19927;-75
2023/06/23 10:07:29;;;;;;;;;;;24.40;92.60;;;;;;5081021;28;19923;-75
2023/06/23 10:09:57;;;;;;;;;;;24.40;95.40;;;;;;5077955;28;20014;-76
2023/06/23 10:12:27;;;;;;;;;;;24.50;96.10;;;;;;5110135;27;20061;-77
2023/06/23 10:14:53;;;;;;;;;;;24.60;95.80;;;;;;5094301;28;19920;-76
2023/06/23 10:17:18;;;;;;;;;;;24.50;96.50;;;;;;5095023;28;20274;-77
2023/06/23 10:19:45;;;;;;;;;;;24.50;96.60;;;;;;5118615;27;20045;-75
2023/06/23 10:22:13;;;;;;;;;;;24.60;97.10;;;;;;5127398;27;19981;-76
2023/06/23 10:24:39;;;;;;;;;;;24.70;96.60;;;;;;5103830;28;19920;-77
2023/06/23 10:27:05;;;;;;;;;;;24.50;96.40;;;;;;5101255;28;19930;-75
2023/06/23 10:29:31;;;;;;;;;;;24.40;96.90;;;;;;5097533;28;19920;-75
2023/06/23 10:31:58;;;;;;;;;;;24.40;97.30;;;;;;5104424;28;20030;-75
2023/06/23 10:34:26;;;;;;;;;;;24.50;98.30;;;;;;5077520;28;19924;-77
2023/06/23 10:36:55;;;;;;;;;;;24.60;97.10;;;;;;5095352;28;19965;-77
2023/06/23 10:39:23;;;;;;;;;;;24.70;97.00;;;;;;5069828;27;20384;-77
2023/06/23 10:41:52;;;;;;;;;;;24.70;96.40;;;;;;5139198;27;19927;-76
2023/06/23 10:44:18;;;;;;;;;;;24.70;96.60;;;;;;5103611;28;19920;-77
2023/06/23 10:46:46;;;;;;;;;;;24.80;96.50;;;;;;5099621;28;19965;-78
2023/06/23 10:49:13;;;;;;;;;;;24.80;96.70;;;;;;5097054;28;20029;-77
2023/06/23 10:51:40;;;;;;;;;;;24.80;96.00;;;;;;5097666;28;19987;-76
2023/06/23 10:54:07;;;;;;;;;;;24.70;97.10;;;;;;5078557;28;19926;-76
2023/06/23 10:56:41;;;;;;;;;;;24.70;97.30;;;;;;5095893;28;19926;-76
2023/06/23 10:59:23;;;;;;;;;;;24.60;96.90;;;;;;5107933;28;19922;-76
2023/06/23 11:02:01;;;;;;;;;;;24.60;97.60;;;;;;5110427;28;19924;-75
2023/06/23 11:04:26;;;;;;;;;;;24.90;98.00;;;;;;5095383;28;20277;-74
2023/06/23 11:07:04;;;;;;;;;;;25.00;96.70;;;;;;5093494;28;20006;-76
2023/06/23 11:09:49;;;;;;;;;;;24.90;97.70;;;;;;5100759;28;19919;-75
2023/06/23 11:12:30;;;;;;;;;;;24.90;97.40;;;;;;5081756;28;20285;-75
2023/06/23 11:15:02;;;;;;;;;;;24.90;97.70;;;;;;5107297;28;20278;-76
2023/06/23 11:17:28;;;;;;;;;;;25.00;97.50;;;;;;5125451;27;19926;-76
2023/06/23 11:19:53;;;;;;;;;;;25.00;97.40;;;;;;5105971;28;20010;-75
2023/06/23 11:22:21;;;;;;;;;;;25.00;97.60;;;;;;5111030;28;19920;-76
2023/06/23 11:24:53;;;;;;;;;;;25.00;97.40;;;;;;5115045;28;20006;-76
2023/06/23 11:27:18;;;;;;;;;;;25.00;97.70;;;;;;5105106;28;19972;-76
2023/06/23 11:30:04;;;;;;;;;;;25.10;97.50;;;;;;5102248;28;20015;-76
2023/06/23 11:32:29;;;;;;;;;;;25.10;97.90;;;;;;5076039;28;19944;-76
2023/06/23 11:34:57;;;;;;;;;;;25.10;98.00;;;;;;5076174;28;19924;-74
2023/06/23 11:37:27;;;;;;;;;;;25.10;97.60;;;;;;5107059;28;19920;-76
2023/06/23 11:39:54;;;;;;;;;;;25.00;97.30;;;;;;5112227;28;20445;-76
2023/06/23 11:42:19;;;;;;;;;;;25.00;97.40;;;;;;5089782;28;19989;-76
2023/06/23 11:44:46;;;;;;;;;;;25.00;97.80;;;;;;5104075;28;20900;-76
2023/06/23 11:47:11;;;;;;;;;;;25.10;96.00;;;;;;5094099;28;20296;-75
2023/06/23 11:49:37;;;;;;;;;;;25.00;97.00;;;;;;5085801;28;19923;-76
2023/06/23 11:52:03;;;;;;;;;;;24.90;97.60;;;;;;5087985;28;19920;-76
2023/06/23 11:54:34;;;;;;;;;;;25.00;97.70;;;;;;5103021;28;19935;-76
2023/06/23 11:57:04;;;;;;;;;;;25.00;97.00;;;;;;5113632;27;19926;-76
2023/06/23 11:59:33;;;;;;;;;;;25.20;97.40;;;;;;5113533;28;19920;-77
2023/06/23 12:01:59;;;;;;;;;;;25.20;96.40;;;;;;5117549;28;19968;-76
2023/06/23 12:04:25;;;;;;;;;;;25.10;95.90;;;;;;5114065;28;19946;-75
2023/06/23 12:06:51;;;;;;;;;;;25.10;96.30;;;;;;5101676;28;19924;-75
2023/06/23 12:09:20;;;;;;;;;;;25.20;96.70;;;;;;5099522;28;19920;-76
2023/06/23 12:11:46;;;;;;;;;;;25.40;95.70;;;;;;5095073;28;19924;-75
2023/06/23 12:14:11;;;;;;;;;;;25.50;95.70;;;;;;5105442;28;19926;-75
2023/06/23 12:16:37;;;;;;;;;;;25.50;94.80;;;;;;5098532;28;20006;-75
2023/06/23 12:19:06;;;;;;;;;;;25.50;93.80;;;;;;5106150;28;19920;-76
2023/06/23 12:21:33;;;;;;;;;;;25.40;93.50;;;;;;5074873;28;20316;-76
2023/06/23 12:23:59;;;;;;;;;;;25.40;94.40;;;;;;5104871;28;20377;-76
2023/06/23 12:26:25;;;;;;;;;;;25.50;94.10;;;;;;5098655;28;19924;-75
2023/06/23 12:28:50;;;;;;;;;;;25.70;92.90;;;;;;5102272;27;19924;-76
2023/06/23 12:31:26;;;;;;;;;;;25.80;92.50;;;;;;5096882;28;20337;-76
2023/06/23 12:33:51;;;;;;;;;;;25.80;91.10;;;;;;5098965;28;20362;-76
2023/06/23 12:36:17;;;;;;;;;;;25.80;91.40;;;;;;5099327;28;19927;-76
2023/06/23 12:38:43;;;;;;;;;;;25.80;88.70;;;;;;5083293;28;20369;-77
2023/06/23 12:41:24;;;;;;;;;;;25.70;88.20;;;;;;5087337;28;19994;-76
2023/06/23 12:43:53;;;;;;;;;;;25.70;90.30;;;;;;5091865;28;19973;-75
2023/06/23 12:46:23;;;;;;;;;;;25.90;88.70;;;;;;5103769;28;19920;-75
2023/06/23 12:48:49;;;;;;;;;;;26.10;88.20;;;;;;5107273;28;19926;-76
2023/06/23 12:51:15;;;;;;;;;;;26.20;82.60;;;;;;5098300;28;19923;-76
2023/06/23 12:53:41;;;;;;;;;;;26.20;84.70;;;;;;5057554;28;19921;-77
2023/06/23 12:56:07;;;;;;;;;;;26.10;85.20;;;;;;5066816;28;20243;-75
2023/06/23 12:58:32;;;;;;;;;;;25.90;80.80;;;;;;5056003;28;19921;-76
2023/06/23 13:00:59;;;;;;;;;;;25.90;80.10;;;;;;5061572;28;20302;-77
2023/06/23 13:03:25;;;;;;;;;;;25.90;78.60;;;;;;5057726;28;20089;-76
2023/06/23 13:05:50;;;;;;;;;;;25.80;79.00;;;;;;5056582;28;19974;-75
2023/06/23 13:08:16;;;;;;;;;;;25.80;80.90;;;;;;5056742;28;20007;-75
2023/06/23 13:10:42;;;;;;;;;;;25.90;80.50;;;;;;5059645;28;19924;-75
2023/06/23 13:13:08;;;;;;;;;;;25.90;80.30;;;;;;5066401;28;19924;-77
2023/06/23 13:15:34;;;;;;;;;;;26.00;78.20;;;;;;5053779;28;19920;-76
2023/06/23 13:18:01;;;;;;;;;;;25.90;79.10;;;;;;5057261;28;20066;-77
2023/06/23 13:20:26;;;;;;;;;;;25.90;79.80;;;;;;5061333;28;19969;-75
2023/06/23 13:22:52;;;;;;;;;;;25.80;78.90;;;;;;5077832;28;20396;-75
2023/06/23 13:25:18;;;;;;;;;;;25.90;83.50;;;;;;5076795;28;19921;-75
2023/06/23 13:27:43;;;;;;;;;;;26.10;82.10;;;;;;5060978;28;20387;-76
2023/06/23 13:30:09;;;;;;;;;;;26.10;79.10;;;;;;5058217;28;20267;-76
2023/06/23 13:32:34;;;;;;;;;;;26.00;81.70;;;;;;5075322;28;20018;-75
2023/06/23 13:35:00;;;;;;;;;;;25.90;79.80;;;;;;5075431;28;19946;-76
2023/06/23 13:37:29;;;;;;;;;;;25.80;81.30;;;;;;5077765;28;19920;-75
2023/06/23 13:39:54;;;;;;;;;;;25.80;78.70;;;;;;5064178;28;20386;-74
2023/06/23 13:42:20;;;;;;;;;;;25.80;79.30;;;;;;5075575;28;20016;-77
2023/06/23 13:44:45;;;;;;;;;;;25.80;80.00;;;;;;5057073;28;19920;-76
2023/06/23 13:47:11;;;;;;;;;;;25.90;78.80;;;;;;5065030;28;19927;-75
2023/06/23 13:49:36;;;;;;;;;;;25.90;76.50;;;;;;5059026;28;19947;-76
2023/06/23 13:52:06;;;;;;;;;;;26.00;76.00;;;;;;5053368;28;19924;-75
2023/06/23 13:54:32;;;;;;;;;;;26.30;77.10;;;;;;5083807;28;19934;-75
2023/06/23 13:56:59;;;;;;;;;;;26.30;74.70;;;;;;5097090;27;19920;-76
2023/06/23 13:59:26;;;;;;;;;;;26.30;74.00;;;;;;5088837;28;19919;-76
2023/06/23 14:01:51;;;;;;;;;;;26.40;73.70;;;;;;5110915;28;20369;-75
2023/06/23 14:04:20;;;;;;;;;;;26.40;71.30;;;;;;5104321;28;19919;-75
2023/06/23 14:06:47;;;;;;;;;;;26.50;72.50;;;;;;5102241;28;19923;-78
2023/06/23 14:09:13;;;;;;;;;;;26.60;72.20;;;;;;5132458;27;19969;-76
2023/06/23 14:11:39;;;;;;;;;;;27.00;74.20;;;;;;5115306;28;20370;-76
2023/06/23 14:14:04;;;;;;;;;;;27.30;74.70;;;;;;5099093;28;19970;-76
2023/06/23 14:16:30;;;;;;;;;;;27.40;72.90;;;;;;5096397;28;19927;-76
2023/06/23 14:18:55;;;;;;;;;;;27.50;73.20;;;;;;5078579;28;19973;-76